Portada
METAR-TAF:

METAR-TAF

Aeroports :

Doylestown Airport

Doylestown, Pennsilvània, Estats Units d'Amèrica

latitud: 40-19-48N, longitud: 075-07-21W, altitud: 120 m

Observació

L'informe es va fer fa 56 minuts, a les 22:54 UTC
Vent 3 kt del Nord/Nord-Oest
Temperatura 13°C
Humitat 54%
Pressió 1004 hPa
Visibilitat: 16.1 km
Cel cobert a una alçada de 6000 ft

METAR: KDYL 152254Z AUTO 34003KT 10SM OVC060 13/04 A2966 RMK AO2 SLP044 T01280044

Hora: 19:50 (23:50 UTC)


TAF: manca

Observacions i pronòstics meteorològics de més de 4000 aeroports (METAR i TAF).

Les estacions disponibles són els punts grocs i vermells al mapa.

Posi el ratolí al punt desitjat per veure el nom de l'estació.

Feu clic per veure les observacions i els pronòstics meteorològics.

Per canviar el mapa: feu clic els botons verds amb una creu de color negre per apropar; al botó verd amb un guió per allunyar la imatge; o en les fletxes verdes per a mapes adjacents.


METAR-TAF: